sensor_id;sensor_type;location;lat;lon;timestamp;pressure;altitude;pressure_sealevel;temperature;humidity
71361;BME280;59166;48.908;1.870;2024-02-21T00:03:42;101254.44;;;8.26;100.00
71361;BME280;59166;48.908;1.870;2024-02-21T00:08:42;101252.34;;;8.28;100.00
71361;BME280;59166;48.908;1.870;2024-02-21T00:13:43;101232.66;;;8.27;100.00
71361;BME280;59166;48.908;1.870;2024-02-21T00:18:46;101229.97;;;8.27;100.00
71361;BME280;59166;48.908;1.870;2024-02-21T00:23:47;101240.53;;;8.29;100.00
71361;BME280;59166;48.908;1.870;2024-02-21T00:28:47;101229.75;;;8.29;100.00
71361;BME280;59166;48.908;1.870;2024-02-21T00:33:50;101211.75;;;8.29;100.00
71361;BME280;59166;48.908;1.870;2024-02-21T00:38:50;101207.56;;;8.34;100.00
71361;BME280;59166;48.908;1.870;2024-02-21T00:43:51;101192.53;;;8.26;100.00
71361;BME280;59166;48.908;1.870;2024-02-21T00:48:54;101171.38;;;8.29;100.00
71361;BME280;59166;48.908;1.870;2024-02-21T00:53:54;101192.00;;;8.36;100.00
71361;BME280;59166;48.908;1.870;2024-02-21T00:58:55;101142.34;;;8.31;100.00
71361;BME280;59166;48.908;1.870;2024-02-21T01:03:57;101180.63;;;8.52;100.00
71361;BME280;59166;48.908;1.870;2024-02-21T01:08:58;101164.63;;;8.39;100.00
71361;BME280;59166;48.908;1.870;2024-02-21T01:13:59;101135.69;;;8.34;100.00
71361;BME280;59166;48.908;1.870;2024-02-21T01:19:01;101148.94;;;8.36;100.00
71361;BME280;59166;48.908;1.870;2024-02-21T01:24:03;101129.88;;;8.37;100.00
71361;BME280;59166;48.908;1.870;2024-02-21T01:29:04;101107.13;;;8.33;100.00
71361;BME280;59166;48.908;1.870;2024-02-21T01:34:06;101119.97;;;8.31;100.00
71361;BME280;59166;48.908;1.870;2024-02-21T01:39:07;101100.94;;;8.32;100.00
71361;BME280;59166;48.908;1.870;2024-02-21T01:44:08;101082.28;;;8.31;100.00
71361;BME280;59166;48.908;1.870;2024-02-21T01:49:10;101062.63;;;8.30;100.00
71361;BME280;59166;48.908;1.870;2024-02-21T01:54:13;101094.59;;;8.27;100.00
71361;BME280;59166;48.908;1.870;2024-02-21T01:59:15;101090.75;;;8.35;100.00
71361;BME280;59166;48.908;1.870;2024-02-21T02:04:19;101098.38;;;8.38;100.00
71361;BME280;59166;48.908;1.870;2024-02-21T02:09:20;101084.03;;;8.44;100.00
71361;BME280;59166;48.908;1.870;2024-02-21T02:14:21;101067.41;;;8.47;100.00
71361;BME280;59166;48.908;1.870;2024-02-21T02:19:24;101050.88;;;8.43;100.00
71361;BME280;59166;48.908;1.870;2024-02-21T02:24:26;101044.44;;;8.44;100.00
71361;BME280;59166;48.908;1.870;2024-02-21T02:29:27;101034.03;;;8.48;100.00
71361;BME280;59166;48.908;1.870;2024-02-21T02:34:28;101018.03;;;8.53;100.00
71361;BME280;59166;48.908;1.870;2024-02-21T02:39:30;101000.09;;;8.47;100.00
71361;BME280;59166;48.908;1.870;2024-02-21T02:44:31;100999.84;;;8.48;100.00
71361;BME280;59166;48.908;1.870;2024-02-21T02:49:32;100998.09;;;8.42;100.00
71361;BME280;59166;48.908;1.870;2024-02-21T02:54:35;100972.44;;;8.40;100.00
71361;BME280;59166;48.908;1.870;2024-02-21T02:59:35;100963.09;;;8.42;100.00
71361;BME280;59166;48.908;1.870;2024-02-21T03:04:39;100947.66;;;8.49;100.00
71361;BME280;59166;48.908;1.870;2024-02-21T03:09:42;100919.44;;;8.52;100.00
71361;BME280;59166;48.908;1.870;2024-02-21T03:14:43;100919.69;;;8.50;100.00
71361;BME280;59166;48.908;1.870;2024-02-21T03:19:53;100923.88;;;8.46;100.00
71361;BME280;59166;48.908;1.870;2024-02-21T03:24:55;100926.94;;;8.50;100.00
71361;BME280;59166;48.908;1.870;2024-02-21T03:29:56;100927.50;;;8.52;100.00
71361;BME280;59166;48.908;1.870;2024-02-21T03:34:57;100923.78;;;8.53;100.00
71361;BME280;59166;48.908;1.870;2024-02-21T03:39:59;100909.75;;;8.51;100.00
71361;BME280;59166;48.908;1.870;2024-02-21T03:45:00;100918.63;;;8.51;100.00
71361;BME280;59166;48.908;1.870;2024-02-21T03:50:00;100901.78;;;8.56;100.00
71361;BME280;59166;48.908;1.870;2024-02-21T03:55:03;100900.94;;;8.55;100.00
71361;BME280;59166;48.908;1.870;2024-02-21T04:00:06;100894.50;;;8.56;100.00
71361;BME280;59166;48.908;1.870;2024-02-21T04:05:07;100907.16;;;8.56;100.00
71361;BME280;59166;48.908;1.870;2024-02-21T04:10:10;100863.84;;;8.57;100.00
71361;BME280;59166;48.908;1.870;2024-02-21T04:15:10;100844.41;;;8.55;100.00
71361;BME280;59166;48.908;1.870;2024-02-21T04:20:14;100858.69;;;8.56;100.00
71361;BME280;59166;48.908;1.870;2024-02-21T04:25:17;100871.47;;;8.60;100.00
71361;BME280;59166;48.908;1.870;2024-02-21T04:30:18;100865.00;;;8.50;100.00
71361;BME280;59166;48.908;1.870;2024-02-21T04:35:19;100868.53;;;8.50;100.00
71361;BME280;59166;48.908;1.870;2024-02-21T04:40:21;100856.09;;;8.49;100.00
71361;BME280;59166;48.908;1.870;2024-02-21T04:45:22;100863.25;;;8.44;100.00
71361;BME280;59166;48.908;1.870;2024-02-21T04:50:23;100848.00;;;8.38;100.00
71361;BME280;59166;48.908;1.870;2024-02-21T04:55:25;100840.19;;;8.36;100.00
71361;BME280;59166;48.908;1.870;2024-02-21T05:00:26;100828.81;;;8.22;100.00
71361;BME280;59166;48.908;1.870;2024-02-21T05:05:27;100825.44;;;8.27;100.00
71361;BME280;59166;48.908;1.870;2024-02-21T05:10:29;100820.75;;;8.22;100.00
71361;BME280;59166;48.908;1.870;2024-02-21T05:15:30;100817.44;;;8.20;100.00
71361;BME280;59166;48.908;1.870;2024-02-21T05:20:30;100805.63;;;8.10;100.00
71361;BME280;59166;48.908;1.870;2024-02-21T05:25:33;100802.94;;;8.10;100.00
71361;BME280;59166;48.908;1.870;2024-02-21T05:30:33;100802.59;;;8.06;100.00
71361;BME280;59166;48.908;1.870;2024-02-21T05:35:35;100790.75;;;8.07;100.00
71361;BME280;59166;48.908;1.870;2024-02-21T05:40:37;100781.53;;;8.03;100.00
71361;BME280;59166;48.908;1.870;2024-02-21T05:45:38;100743.88;;;8.03;100.00
71361;BME280;59166;48.908;1.870;2024-02-21T05:50:38;100765.59;;;8.02;100.00
71361;BME280;59166;48.908;1.870;2024-02-21T05:55:41;100745.38;;;7.99;100.00
71361;BME280;59166;48.908;1.870;2024-02-21T06:00:42;100756.72;;;7.90;100.00
71361;BME280;59166;48.908;1.870;2024-02-21T06:05:43;100758.31;;;7.91;100.00
71361;BME280;59166;48.908;1.870;2024-02-21T06:10:45;100723.63;;;7.89;100.00
71361;BME280;59166;48.908;1.870;2024-02-21T06:15:46;100722.44;;;7.85;100.00
71361;BME280;59166;48.908;1.870;2024-02-21T06:20:47;100703.47;;;7.80;100.00
71361;BME280;59166;48.908;1.870;2024-02-21T06:25:49;100715.16;;;7.74;100.00
71361;BME280;59166;48.908;1.870;2024-02-21T06:30:50;100728.97;;;7.66;100.00
71361;BME280;59166;48.908;1.870;2024-02-21T06:35:51;100720.06;;;7.65;100.00
71361;BME280;59166;48.908;1.870;2024-02-21T06:40:53;100702.19;;;7.59;100.00
71361;BME280;59166;48.908;1.870;2024-02-21T06:45:54;100679.94;;;7.64;100.00
71361;BME280;59166;48.908;1.870;2024-02-21T06:50:55;100667.81;;;7.61;100.00
71361;BME280;59166;48.908;1.870;2024-02-21T06:55:57;100670.50;;;7.61;100.00
71361;BME280;59166;48.908;1.870;2024-02-21T07:00:58;100684.97;;;7.60;100.00
71361;BME280;59166;48.908;1.870;2024-02-21T07:05:58;100694.09;;;7.59;100.00
71361;BME280;59166;48.908;1.870;2024-02-21T07:11:01;100704.16;;;7.64;100.00
71361;BME280;59166;48.908;1.870;2024-02-21T07:16:01;100711.28;;;7.70;100.00
71361;BME280;59166;48.908;1.870;2024-02-21T07:21:03;100718.91;;;7.73;100.00
71361;BME280;59166;48.908;1.870;2024-02-21T07:26:05;100709.44;;;7.82;100.00
71361;BME280;59166;48.908;1.870;2024-02-21T07:31:06;100696.56;;;7.84;100.00
71361;BME280;59166;48.908;1.870;2024-02-21T07:36:07;100685.50;;;7.92;100.00
71361;BME280;59166;48.908;1.870;2024-02-21T07:41:10;100685.59;;;7.97;100.00
71361;BME280;59166;48.908;1.870;2024-02-21T07:46:10;100673.31;;;8.01;100.00
71361;BME280;59166;48.908;1.870;2024-02-21T07:51:11;100663.50;;;8.07;100.00
71361;BME280;59166;48.908;1.870;2024-02-21T07:56:13;100654.13;;;8.09;100.00
71361;BME280;59166;48.908;1.870;2024-02-21T08:01:18;100642.06;;;8.12;100.00
71361;BME280;59166;48.908;1.870;2024-02-21T08:06:19;100641.47;;;8.21;100.00
71361;BME280;59166;48.908;1.870;2024-02-21T08:11:21;100646.28;;;8.19;100.00
71361;BME280;59166;48.908;1.870;2024-02-21T08:16:22;100638.31;;;8.24;100.00
71361;BME280;59166;48.908;1.870;2024-02-21T08:21:23;100624.84;;;8.24;100.00
71361;BME280;59166;48.908;1.870;2024-02-21T08:26:25;100613.13;;;8.30;100.00
71361;BME280;59166;48.908;1.870;2024-02-21T08:31:26;100599.59;;;8.25;100.00
71361;BME280;59166;48.908;1.870;2024-02-21T08:36:27;100603.88;;;8.38;100.00
71361;BME280;59166;48.908;1.870;2024-02-21T08:41:30;100586.53;;;8.46;100.00
71361;BME280;59166;48.908;1.870;2024-02-21T08:46:31;100576.53;;;8.58;100.00
71361;BME280;59166;48.908;1.870;2024-02-21T08:51:32;100574.03;;;8.68;100.00
71361;BME280;59166;48.908;1.870;2024-02-21T08:56:34;100555.34;;;8.78;100.00
71361;BME280;59166;48.908;1.870;2024-02-21T09:01:35;100548.53;;;8.87;100.00
71361;BME280;59166;48.908;1.870;2024-02-21T09:06:36;100565.88;;;8.91;100.00
71361;BME280;59166;48.908;1.870;2024-02-21T09:11:38;100528.06;;;9.03;100.00
71361;BME280;59166;48.908;1.870;2024-02-21T09:16:39;100539.13;;;9.18;100.00
71361;BME280;59166;48.908;1.870;2024-02-21T09:21:40;100523.09;;;9.11;100.00
71361;BME280;59166;48.908;1.870;2024-02-21T09:26:42;100509.63;;;9.11;100.00
71361;BME280;59166;48.908;1.870;2024-02-21T09:31:43;100507.16;;;9.26;100.00
71361;BME280;59166;48.908;1.870;2024-02-21T09:36:44;100491.13;;;9.37;100.00
71361;BME280;59166;48.908;1.870;2024-02-21T09:41:50;100490.31;;;9.36;100.00
71361;BME280;59166;48.908;1.870;2024-02-21T09:46:57;100495.47;;;9.38;100.00
71361;BME280;59166;48.908;1.870;2024-02-21T09:52:04;100485.56;;;9.43;100.00
71361;BME280;59166;48.908;1.870;2024-02-21T09:57:07;100477.88;;;9.52;100.00
71361;BME280;59166;48.908;1.870;2024-02-21T10:02:08;100461.00;;;9.61;100.00
71361;BME280;59166;48.908;1.870;2024-02-21T10:07:09;100462.88;;;9.61;100.00
71361;BME280;59166;48.908;1.870;2024-02-21T10:12:12;100451.19;;;9.72;100.00
71361;BME280;59166;48.908;1.870;2024-02-21T10:17:16;100444.13;;;9.71;100.00
71361;BME280;59166;48.908;1.870;2024-02-21T10:22:17;100427.88;;;9.66;100.00
71361;BME280;59166;48.908;1.870;2024-02-21T10:27:23;100421.63;;;9.82;100.00
71361;BME280;59166;48.908;1.870;2024-02-21T10:32:24;100399.03;;;9.88;100.00
71361;BME280;59166;48.908;1.870;2024-02-21T10:37:25;100397.28;;;9.77;100.00
71361;BME280;59166;48.908;1.870;2024-02-21T10:42:29;100394.16;;;9.90;100.00
71361;BME280;59166;48.908;1.870;2024-02-21T10:47:32;100385.47;;;9.83;100.00
71361;BME280;59166;48.908;1.870;2024-02-21T10:52:48;100380.44;;;9.92;100.00
71361;BME280;59166;48.908;1.870;2024-02-21T10:57:54;100368.28;;;9.89;100.00
71361;BME280;59166;48.908;1.870;2024-02-21T11:02:55;100359.78;;;10.02;100.00
71361;BME280;59166;48.908;1.870;2024-02-21T11:07:57;100346.53;;;10.01;100.00
71361;BME280;59166;48.908;1.870;2024-02-21T11:13:07;100337.88;;;9.99;100.00
71361;BME280;59166;48.908;1.870;2024-02-21T11:18:08;100326.88;;;10.05;100.00
71361;BME280;59166;48.908;1.870;2024-02-21T11:23:09;100326.97;;;10.15;100.00
71361;BME280;59166;48.908;1.870;2024-02-21T11:28:11;100318.66;;;10.22;100.00
71361;BME280;59166;48.908;1.870;2024-02-21T11:33:12;100302.59;;;10.42;100.00
71361;BME280;59166;48.908;1.870;2024-02-21T11:38:13;100290.50;;;10.50;100.00
71361;BME280;59166;48.908;1.870;2024-02-21T11:43:16;100266.75;;;10.52;100.00
71361;BME280;59166;48.908;1.870;2024-02-21T11:48:17;100252.19;;;10.58;100.00
71361;BME280;59166;48.908;1.870;2024-02-21T11:53:18;100236.81;;;10.58;100.00
71361;BME280;59166;48.908;1.870;2024-02-21T11:58:22;100222.75;;;10.56;100.00
71361;BME280;59166;48.908;1.870;2024-02-21T12:03:22;100219.25;;;10.56;100.00
71361;BME280;59166;48.908;1.870;2024-02-21T12:08:23;100204.38;;;10.53;100.00
71361;BME280;59166;48.908;1.870;2024-02-21T12:13:26;100186.81;;;10.56;100.00
71361;BME280;59166;48.908;1.870;2024-02-21T12:18:27;100185.75;;;10.57;100.00
71361;BME280;59166;48.908;1.870;2024-02-21T12:23:27;100171.16;;;10.58;100.00
71361;BME280;59166;48.908;1.870;2024-02-21T12:28:30;100149.00;;;10.56;100.00
71361;BME280;59166;48.908;1.870;2024-02-21T12:33:31;100136.91;;;10.63;100.00
71361;BME280;59166;48.908;1.870;2024-02-21T12:38:32;100110.66;;;10.59;100.00
71361;BME280;59166;48.908;1.870;2024-02-21T12:43:35;100104.69;;;10.52;100.00
71361;BME280;59166;48.908;1.870;2024-02-21T12:48:35;100091.72;;;10.49;100.00
71361;BME280;59166;48.908;1.870;2024-02-21T12:53:36;100090.09;;;10.48;100.00
71361;BME280;59166;48.908;1.870;2024-02-21T12:58:39;100081.72;;;10.44;100.00
71361;BME280;59166;48.908;1.870;2024-02-21T13:03:40;100078.19;;;10.39;100.00
71361;BME280;59166;48.908;1.870;2024-02-21T13:08:40;100060.84;;;10.19;100.00
71361;BME280;59166;48.908;1.870;2024-02-21T13:13:43;100052.13;;;10.07;100.00
71361;BME280;59166;48.908;1.870;2024-02-21T13:18:43;100039.66;;;9.96;100.00
71361;BME280;59166;48.908;1.870;2024-02-21T13:23:44;100018.59;;;9.93;100.00
71361;BME280;59166;48.908;1.870;2024-02-21T13:28:46;100007.53;;;9.90;100.00
71361;BME280;59166;48.908;1.870;2024-02-21T13:33:47;99997.22;;;9.76;100.00
71361;BME280;59166;48.908;1.870;2024-02-21T13:38:48;99979.13;;;9.72;100.00
71361;BME280;59166;48.908;1.870;2024-02-21T14:00:16;99898.97;;;9.62;100.00
71361;BME280;59166;48.908;1.870;2024-02-21T14:05:17;99882.53;;;9.59;100.00
71361;BME280;59166;48.908;1.870;2024-02-21T14:10:18;99866.84;;;9.56;100.00
71361;BME280;59166;48.908;1.870;2024-02-21T14:15:20;99860.16;;;9.58;100.00
71361;BME280;59166;48.908;1.870;2024-02-21T14:20:20;99827.47;;;9.50;100.00
71361;BME280;59166;48.908;1.870;2024-02-21T14:25:21;99860.41;;;9.52;100.00
71361;BME280;59166;48.908;1.870;2024-02-21T14:30:23;99835.59;;;9.60;100.00
71361;BME280;59166;48.908;1.870;2024-02-21T14:35:24;99827.78;;;9.58;100.00
71361;BME280;59166;48.908;1.870;2024-02-21T14:40:24;99814.81;;;9.50;100.00
71361;BME280;59166;48.908;1.870;2024-02-21T14:45:26;99810.78;;;9.58;100.00
71361;BME280;59166;48.908;1.870;2024-02-21T14:50:27;99795.44;;;9.58;100.00
71361;BME280;59166;48.908;1.870;2024-02-21T14:55:28;99773.84;;;9.58;100.00
71361;BME280;59166;48.908;1.870;2024-02-21T15:00:30;99773.84;;;9.58;100.00
71361;BME280;59166;48.908;1.870;2024-02-21T15:05:31;99756.03;;;9.62;100.00
71361;BME280;59166;48.908;1.870;2024-02-21T15:10:31;99740.16;;;9.61;100.00
71361;BME280;59166;48.908;1.870;2024-02-21T15:15:33;99740.13;;;9.56;100.00
71361;BME280;59166;48.908;1.870;2024-02-21T15:20:34;99721.53;;;9.54;100.00
71361;BME280;59166;48.908;1.870;2024-02-21T15:25:35;99718.53;;;9.46;100.00
71361;BME280;59166;48.908;1.870;2024-02-21T15:30:37;99712.09;;;9.47;100.00
71361;BME280;59166;48.908;1.870;2024-02-21T15:35:37;99703.75;;;9.48;100.00
71361;BME280;59166;48.908;1.870;2024-02-21T15:40:38;99700.19;;;9.43;100.00
71361;BME280;59166;48.908;1.870;2024-02-21T15:45:40;99686.22;;;9.51;100.00
71361;BME280;59166;48.908;1.870;2024-02-21T15:50:41;99677.06;;;9.52;100.00
71361;BME280;59166;48.908;1.870;2024-02-21T15:55:42;99662.47;;;9.53;100.00
71361;BME280;59166;48.908;1.870;2024-02-21T16:00:44;99659.25;;;9.51;100.00
71361;BME280;59166;48.908;1.870;2024-02-21T16:05:44;99650.63;;;9.54;100.00
71361;BME280;59166;48.908;1.870;2024-02-21T16:10:45;99632.28;;;9.56;100.00
71361;BME280;59166;48.908;1.870;2024-02-21T16:15:47;99634.47;;;9.49;100.00
71361;BME280;59166;48.908;1.870;2024-02-21T16:20:48;99629.31;;;9.52;100.00
71361;BME280;59166;48.908;1.870;2024-02-21T16:25:48;99618.78;;;9.56;100.00
71361;BME280;59166;48.908;1.870;2024-02-21T16:30:50;99612.88;;;9.59;100.00
71361;BME280;59166;48.908;1.870;2024-02-21T16:35:51;99613.41;;;9.61;100.00
71361;BME280;59166;48.908;1.870;2024-02-21T16:40:52;99596.69;;;9.64;100.00
71361;BME280;59166;48.908;1.870;2024-02-21T16:45:54;99587.00;;;9.58;100.00
71361;BME280;59166;48.908;1.870;2024-02-21T16:50:54;99585.38;;;9.52;100.00
71361;BME280;59166;48.908;1.870;2024-02-21T16:55:55;99584.31;;;9.48;100.00
71361;BME280;59166;48.908;1.870;2024-02-21T17:00:57;99574.03;;;9.50;100.00
71361;BME280;59166;48.908;1.870;2024-02-21T17:05:57;99557.88;;;9.55;100.00
71361;BME280;59166;48.908;1.870;2024-02-21T17:10:58;99559.47;;;9.61;100.00
71361;BME280;59166;48.908;1.870;2024-02-21T17:16:00;99562.47;;;9.54;100.00
71361;BME280;59166;48.908;1.870;2024-02-21T17:21:00;99549.75;;;9.60;100.00
71361;BME280;59166;48.908;1.870;2024-02-21T17:26:01;99554.63;;;9.63;100.00
71361;BME280;59166;48.908;1.870;2024-02-21T17:31:03;99547.91;;;9.55;100.00
71361;BME280;59166;48.908;1.870;2024-02-21T17:36:04;99538.16;;;9.59;100.00
71361;BME280;59166;48.908;1.870;2024-02-21T17:41:05;99532.00;;;9.59;100.00
71361;BME280;59166;48.908;1.870;2024-02-21T17:46:07;99526.28;;;9.70;100.00
71361;BME280;59166;48.908;1.870;2024-02-21T17:51:08;99510.91;;;9.71;100.00
71361;BME280;59166;48.908;1.870;2024-02-21T17:56:09;99513.34;;;9.67;100.00
71361;BME280;59166;48.908;1.870;2024-02-21T18:01:11;99498.25;;;9.71;100.00
71361;BME280;59166;48.908;1.870;2024-02-21T18:06:11;99496.59;;;9.80;100.00
71361;BME280;59166;48.908;1.870;2024-02-21T18:11:12;99484.47;;;9.78;100.00
71361;BME280;59166;48.908;1.870;2024-02-21T18:16:14;99492.00;;;9.76;100.00
71361;BME280;59166;48.908;1.870;2024-02-21T18:21:14;99485.28;;;9.78;100.00
71361;BME280;59166;48.908;1.870;2024-02-21T18:26:15;99482.28;;;9.80;100.00
71361;BME280;59166;48.908;1.870;2024-02-21T18:31:17;99477.97;;;9.84;100.00
71361;BME280;59166;48.908;1.870;2024-02-21T18:36:18;99484.97;;;9.90;100.00
71361;BME280;59166;48.908;1.870;2024-02-21T18:41:18;99464.75;;;9.88;100.00
71361;BME280;59166;48.908;1.870;2024-02-21T18:46:20;99462.31;;;9.91;100.00
71361;BME280;59166;48.908;1.870;2024-02-21T18:51:21;99458.78;;;9.91;100.00
71361;BME280;59166;48.908;1.870;2024-02-21T18:56:22;99466.31;;;9.99;100.00
71361;BME280;59166;48.908;1.870;2024-02-21T19:01:24;99453.34;;;10.01;100.00
71361;BME280;59166;48.908;1.870;2024-02-21T19:06:24;99449.56;;;10.02;100.00
71361;BME280;59166;48.908;1.870;2024-02-21T19:11:25;99430.41;;;10.03;100.00
71361;BME280;59166;48.908;1.870;2024-02-21T19:16:27;99428.25;;;10.05;100.00
71361;BME280;59166;48.908;1.870;2024-02-21T19:21:28;99425.81;;;10.04;100.00
71361;BME280;59166;48.908;1.870;2024-02-21T19:26:29;99420.91;;;10.11;100.00
71361;BME280;59166;48.908;1.870;2024-02-21T19:31:30;99409.56;;;10.14;100.00
71361;BME280;59166;48.908;1.870;2024-02-21T19:36:31;99412.56;;;10.07;100.00
71361;BME280;59166;48.908;1.870;2024-02-21T19:41:32;99392.53;;;10.18;100.00
71361;BME280;59166;48.908;1.870;2024-02-21T19:46:34;99368.50;;;10.22;100.00
71361;BME280;59166;48.908;1.870;2024-02-21T19:51:34;99372.03;;;10.17;100.00
71361;BME280;59166;48.908;1.870;2024-02-21T19:56:35;99376.88;;;10.20;100.00
71361;BME280;59166;48.908;1.870;2024-02-21T20:01:37;99369.00;;;10.24;100.00
71361;BME280;59166;48.908;1.870;2024-02-21T20:06:38;99362.22;;;10.31;100.00
71361;BME280;59166;48.908;1.870;2024-02-21T20:11:39;99363.03;;;10.32;100.00
71361;BME280;59166;48.908;1.870;2024-02-21T20:16:41;99352.22;;;10.32;100.00
71361;BME280;59166;48.908;1.870;2024-02-21T20:21:42;99334.34;;;10.41;100.00
71361;BME280;59166;48.908;1.870;2024-02-21T20:26:42;99337.81;;;10.47;100.00
71361;BME280;59166;48.908;1.870;2024-02-21T20:31:45;99342.97;;;10.43;100.00
71361;BME280;59166;48.908;1.870;2024-02-21T20:36:45;99327.56;;;10.44;100.00
71361;BME280;59166;48.908;1.870;2024-02-21T20:41:46;99302.91;;;10.50;100.00
71361;BME280;59166;48.908;1.870;2024-02-21T20:46:48;99298.25;;;10.61;100.00
71361;BME280;59166;48.908;1.870;2024-02-21T20:51:49;99292.34;;;10.54;100.00
71361;BME280;59166;48.908;1.870;2024-02-21T20:56:50;99287.34;;;10.71;100.00
71361;BME280;59166;48.908;1.870;2024-02-21T21:01:52;99276.59;;;10.66;100.00
71361;BME280;59166;48.908;1.870;2024-02-21T21:06:53;99280.31;;;10.75;100.00
71361;BME280;59166;48.908;1.870;2024-02-21T21:11:54;99274.97;;;10.65;100.00
71361;BME280;59166;48.908;1.870;2024-02-21T21:16:56;99273.56;;;10.72;100.00
71361;BME280;59166;48.908;1.870;2024-02-21T21:21:57;99261.94;;;10.77;100.00
71361;BME280;59166;48.908;1.870;2024-02-21T21:26:58;99244.56;;;10.83;100.00
71361;BME280;59166;48.908;1.870;2024-02-21T21:32:01;99233.22;;;10.81;100.00
71361;BME280;59166;48.908;1.870;2024-02-21T21:37:02;99228.88;;;10.85;100.00
71361;BME280;59166;48.908;1.870;2024-02-21T21:42:03;99225.59;;;10.88;100.00
71361;BME280;59166;48.908;1.870;2024-02-21T21:47:05;99214.06;;;11.01;100.00
71361;BME280;59166;48.908;1.870;2024-02-21T21:52:06;99217.44;;;10.93;100.00
71361;BME280;59166;48.908;1.870;2024-02-21T21:57:07;99226.84;;;10.96;100.00
71361;BME280;59166;48.908;1.870;2024-02-21T22:02:10;99221.09;;;11.02;100.00
71361;BME280;59166;48.908;1.870;2024-02-21T22:07:11;99208.13;;;11.04;100.00
71361;BME280;59166;48.908;1.870;2024-02-21T22:12:12;99198.31;;;11.08;100.00
71361;BME280;59166;48.908;1.870;2024-02-21T22:17:14;99192.31;;;11.11;100.00
71361;BME280;59166;48.908;1.870;2024-02-21T22:22:15;99187.81;;;11.07;100.00
71361;BME280;59166;48.908;1.870;2024-02-21T22:27:16;99174.28;;;11.07;100.00
71361;BME280;59166;48.908;1.870;2024-02-21T22:32:18;99168.31;;;11.10;100.00
71361;BME280;59166;48.908;1.870;2024-02-21T22:37:18;99163.72;;;11.10;100.00
71361;BME280;59166;48.908;1.870;2024-02-21T22:42:19;99150.69;;;11.12;100.00
71361;BME280;59166;48.908;1.870;2024-02-21T22:47:21;99153.63;;;11.16;100.00
71361;BME280;59166;48.908;1.870;2024-02-21T22:52:21;99131.34;;;11.24;100.00
71361;BME280;59166;48.908;1.870;2024-02-21T22:57:22;99125.41;;;11.22;100.00
71361;BME280;59166;48.908;1.870;2024-02-21T23:02:24;99113.78;;;11.21;100.00
71361;BME280;59166;48.908;1.870;2024-02-21T23:07:25;99118.53;;;11.29;100.00
71361;BME280;59166;48.908;1.870;2024-02-21T23:12:25;99109.25;;;11.35;100.00
71361;BME280;59166;48.908;1.870;2024-02-21T23:17:27;99085.34;;;11.43;100.00
71361;BME280;59166;48.908;1.870;2024-02-21T23:22:28;99076.75;;;11.41;100.00
71361;BME280;59166;48.908;1.870;2024-02-21T23:27:29;99065.13;;;11.40;100.00
71361;BME280;59166;48.908;1.870;2024-02-21T23:32:31;99056.50;;;11.38;100.00
71361;BME280;59166;48.908;1.870;2024-02-21T23:37:31;99050.50;;;11.41;100.00
71361;BME280;59166;48.908;1.870;2024-02-21T23:42:32;99036.69;;;11.43;100.00
71361;BME280;59166;48.908;1.870;2024-02-21T23:47:34;99038.72;;;11.51;100.00
71361;BME280;59166;48.908;1.870;2024-02-21T23:52:35;99027.56;;;11.52;100.00
71361;BME280;59166;48.908;1.870;2024-02-21T23:57:35;99016.47;;;11.54;100.00
